createdAt,value
2018-03-28T00:00:35.768Z,21.60
2018-03-28T00:01:35.598Z,20.70
2018-03-28T00:02:35.781Z,20.30
2018-03-28T00:03:35.611Z,19.40
2018-03-28T00:04:35.795Z,21.40
2018-03-28T00:05:35.619Z,19.10
2018-03-28T00:06:35.807Z,20.70
2018-03-28T00:07:35.699Z,20.70
2018-03-28T00:08:35.832Z,20.80
2018-03-28T00:09:35.641Z,21.10
2018-03-28T00:10:35.838Z,24.40
2018-03-28T00:11:35.654Z,23.70
2018-03-28T00:12:35.847Z,23.50
2018-03-28T00:13:35.665Z,21.70
2018-03-28T00:14:35.861Z,20.50
2018-03-28T00:15:35.681Z,23.10
2018-03-28T00:16:35.929Z,20.80
2018-03-28T00:17:35.687Z,21.30
2018-03-28T00:18:35.892Z,23.10
2018-03-28T00:19:35.696Z,21.60
2018-03-28T00:20:35.906Z,22.70
2018-03-28T00:21:35.710Z,19.60
2018-03-28T00:22:35.813Z,22.70
2018-03-28T00:23:35.724Z,20.50
2018-03-28T00:24:35.849Z,24.50
2018-03-28T00:25:35.728Z,21.40
2018-03-28T00:26:35.748Z,20.60
2018-03-28T00:27:35.742Z,23.20
2018-03-28T00:28:35.737Z,21.10
2018-03-28T00:29:35.747Z,23.20
2018-03-28T00:30:35.873Z,23.10
2018-03-28T00:31:35.757Z,22.50
2018-03-28T00:32:35.878Z,21.00
2018-03-28T00:33:35.769Z,20.90
2018-03-28T00:34:35.899Z,22.80
2018-03-28T00:35:35.779Z,20.40
2018-03-28T00:36:35.915Z,24.30
2018-03-28T00:37:35.791Z,21.10
2018-03-28T00:38:35.935Z,21.00
2018-03-28T00:39:35.796Z,22.00
2018-03-28T00:40:35.940Z,21.30
2018-03-28T00:41:35.809Z,21.80
2018-03-28T00:42:35.954Z,21.00
2018-03-28T00:43:35.831Z,24.50
2018-03-28T00:44:35.965Z,21.80
2018-03-28T00:45:35.834Z,23.10
2018-03-28T00:46:35.983Z,21.00
2018-03-28T00:47:35.837Z,24.00
2018-03-28T00:48:36.000Z,23.10
2018-03-28T00:49:35.852Z,22.70
2018-03-28T00:50:36.933Z,22.60
2018-03-28T00:51:35.866Z,20.00
2018-03-28T00:52:35.870Z,20.40
2018-03-28T00:53:36.031Z,23.60
2018-03-28T00:54:35.883Z,25.10
2018-03-28T00:55:36.042Z,24.60
2018-03-28T00:56:35.895Z,23.60
2018-03-28T00:57:37.078Z,24.10
2018-03-28T00:58:35.915Z,23.30
2018-03-28T00:59:36.066Z,24.60
2018-03-28T01:00:35.907Z,23.20
2018-03-28T01:01:37.108Z,24.50
2018-03-28T01:02:35.923Z,26.20
2018-03-28T01:03:36.097Z,23.40
2018-03-28T01:04:35.928Z,23.10
2018-03-28T01:05:36.112Z,23.20
2018-03-28T01:06:35.935Z,25.10
2018-03-28T01:07:36.123Z,24.20
2018-03-28T01:08:35.967Z,22.10
2018-03-28T01:09:36.138Z,22.50
2018-03-28T01:10:35.961Z,22.80
2018-03-28T01:11:36.150Z,23.80
2018-03-28T01:12:35.982Z,25.40
2018-03-28T01:13:36.165Z,22.20
2018-03-28T01:14:35.980Z,22.90
2018-03-28T01:15:36.073Z,24.20
2018-03-28T01:16:35.990Z,23.80
2018-03-28T01:17:36.090Z,24.70
2018-03-28T01:18:35.995Z,24.50
2018-03-28T01:19:36.102Z,26.00
2018-03-28T01:20:36.013Z,26.10
2018-03-28T01:21:36.114Z,26.00
2018-03-28T01:22:36.022Z,24.20
2018-03-28T01:23:36.131Z,24.50
2018-03-28T01:24:36.037Z,23.80
2018-03-28T01:25:36.144Z,24.80
2018-03-28T01:26:36.045Z,24.60
2018-03-28T01:27:36.163Z,25.30
2018-03-28T01:28:36.049Z,24.10
2018-03-28T01:29:36.171Z,25.90
2018-03-28T01:30:36.067Z,26.80
2018-03-28T01:31:36.181Z,26.90
2018-03-28T01:32:36.077Z,25.90
2018-03-28T01:33:36.199Z,28.30
2018-03-28T01:34:36.089Z,24.60
2018-03-28T01:35:36.210Z,24.40
2018-03-28T01:36:36.109Z,25.30
2018-03-28T01:37:36.224Z,25.70
2018-03-28T01:38:36.117Z,25.10
2018-03-28T01:39:36.243Z,27.50
2018-03-28T01:40:36.118Z,25.90
2018-03-28T01:41:36.147Z,26.40
2018-03-28T01:42:36.128Z,26.90
2018-03-28T01:43:36.161Z,25.90
2018-03-28T01:44:36.136Z,25.00
2018-03-28T01:45:36.180Z,27.40
2018-03-28T01:46:36.144Z,27.60
2018-03-28T01:47:36.189Z,29.20
2018-03-28T01:48:36.153Z,30.00
2018-03-28T01:49:36.210Z,27.60
2018-03-28T01:50:36.168Z,25.80
2018-03-28T01:51:36.219Z,28.10
2018-03-28T01:52:36.175Z,26.80
2018-03-28T01:53:36.236Z,28.00
2018-03-28T01:54:36.184Z,31.40
2018-03-28T01:55:36.242Z,27.70
2018-03-28T01:56:36.194Z,28.30
2018-03-28T01:57:36.258Z,26.60
2018-03-28T01:58:36.203Z,29.10
2018-03-28T01:59:36.271Z,25.30
2018-03-28T02:00:36.217Z,30.10
2018-03-28T02:01:36.281Z,27.70
2018-03-28T02:02:36.228Z,27.00
2018-03-28T02:03:36.298Z,27.10
2018-03-28T02:04:36.233Z,30.20
2018-03-28T02:05:36.310Z,26.50
2018-03-28T02:06:36.243Z,26.30
2018-03-28T02:07:37.350Z,31.60
2018-03-28T02:08:36.256Z,27.90
2018-03-28T02:09:36.338Z,30.80
2018-03-28T02:10:36.273Z,25.90
2018-03-28T02:11:36.351Z,26.90
2018-03-28T02:12:36.283Z,28.90
2018-03-28T02:13:36.364Z,29.10
2018-03-28T02:14:36.295Z,28.60
2018-03-28T02:15:36.379Z,29.60
2018-03-28T02:16:36.303Z,28.30
2018-03-28T02:17:36.396Z,29.90
2018-03-28T02:18:36.318Z,29.50
2018-03-28T02:19:36.405Z,31.10
2018-03-28T02:20:36.311Z,31.00
2018-03-28T02:21:36.419Z,29.50
2018-03-28T02:22:36.329Z,32.60
2018-03-28T02:23:36.435Z,27.60
2018-03-28T02:24:36.335Z,30.40
2018-03-28T02:25:36.448Z,31.30
2018-03-28T02:26:36.346Z,32.50
2018-03-28T02:27:36.560Z,34.70
2018-03-28T02:28:36.352Z,32.60
2018-03-28T02:29:37.498Z,30.40
2018-03-28T02:30:36.377Z,31.40
2018-03-28T02:31:37.514Z,27.90
2018-03-28T02:32:36.384Z,31.80
2018-03-28T02:33:36.502Z,33.20
2018-03-28T02:34:36.396Z,30.10
2018-03-28T02:35:36.515Z,33.70
2018-03-28T02:36:36.397Z,33.70
2018-03-28T02:37:36.530Z,34.50
2018-03-28T02:38:36.413Z,35.80
2018-03-28T02:39:36.549Z,35.80
2018-03-28T02:40:36.416Z,38.30
2018-03-28T02:41:36.554Z,37.90
2018-03-28T02:42:36.497Z,34.50
2018-03-28T02:43:36.585Z,38.80
2018-03-28T02:44:36.433Z,36.40
2018-03-28T02:45:36.593Z,37.10
2018-03-28T02:46:36.446Z,36.60
2018-03-28T02:47:36.598Z,40.90
2018-03-28T02:48:36.460Z,38.70
2018-03-28T02:49:36.616Z,37.20
2018-03-28T02:50:36.474Z,41.90
2018-03-28T02:51:36.630Z,37.30
2018-03-28T02:52:36.469Z,40.00
2018-03-28T02:53:36.545Z,45.10
2018-03-28T02:54:36.511Z,40.20
2018-03-28T02:55:36.562Z,45.40
2018-03-28T02:56:36.494Z,43.30
2018-03-28T02:57:36.572Z,46.90
2018-03-28T02:58:36.505Z,42.50
2018-03-28T02:59:36.692Z,41.40
2018-03-28T03:00:36.527Z,44.70
2018-03-28T03:01:36.600Z,48.90
2018-03-28T03:02:36.524Z,44.80
2018-03-28T03:03:36.618Z,49.30
2018-03-28T03:04:36.537Z,51.80
2018-03-28T03:05:36.624Z,48.70
2018-03-28T03:06:36.552Z,49.70
2018-03-28T03:07:36.643Z,47.70
2018-03-28T03:08:36.559Z,48.30
2018-03-28T03:09:36.651Z,56.30
2018-03-28T03:10:36.564Z,55.20
2018-03-28T03:11:36.660Z,52.40
2018-03-28T03:12:36.577Z,54.40
2018-03-28T03:13:36.675Z,56.60
2018-03-28T03:14:36.600Z,56.80
2018-03-28T03:15:36.692Z,56.90
2018-03-28T03:16:36.612Z,52.20
2018-03-28T03:17:36.700Z,58.20
2018-03-28T03:18:36.605Z,56.50
2018-03-28T03:19:36.728Z,63.70
2018-03-28T03:20:36.619Z,67.80
2018-03-28T03:21:36.733Z,63.90
2018-03-28T03:22:36.630Z,60.30
2018-03-28T03:23:36.748Z,61.90
2018-03-28T03:24:36.628Z,69.30
2018-03-28T03:25:36.772Z,67.90
2018-03-28T03:26:36.642Z,65.00
2018-03-28T03:27:36.779Z,68.20
2018-03-28T03:28:36.657Z,70.40
2018-03-28T03:29:36.796Z,77.00
2018-03-28T03:30:36.672Z,85.90
2018-03-28T03:31:36.802Z,83.70
2018-03-28T03:32:36.673Z,76.10
2018-03-28T03:33:36.821Z,80.00
2018-03-28T03:34:36.678Z,69.40
2018-03-28T03:35:36.832Z,77.30
2018-03-28T03:36:36.691Z,84.70
2018-03-28T03:37:36.842Z,67.90
2018-03-28T03:38:36.699Z,77.60
2018-03-28T03:39:36.861Z,82.80
2018-03-28T03:40:36.710Z,74.70
2018-03-28T03:41:36.870Z,97.70
2018-03-28T03:42:36.728Z,94.60
2018-03-28T03:43:36.878Z,88.10
2018-03-28T03:44:36.747Z,82.50
2018-03-28T03:45:36.905Z,95.00
2018-03-28T03:46:36.748Z,84.90
2018-03-28T03:47:36.913Z,90.90
2018-03-28T03:48:36.762Z,102.60
2018-03-28T03:49:36.947Z,99.20
2018-03-28T03:50:36.777Z,94.70
2018-03-28T03:51:36.937Z,111.30
2018-03-28T03:52:36.762Z,103.50
2018-03-28T03:53:36.946Z,110.90
2018-03-28T03:54:36.784Z,114.00
2018-03-28T03:55:36.966Z,99.90
2018-03-28T03:56:36.793Z,99.80
2018-03-28T03:57:36.974Z,101.50
2018-03-28T03:58:36.796Z,100.90
2018-03-28T03:59:36.985Z,118.40
2018-03-28T04:00:36.812Z,115.00
2018-03-28T04:01:36.904Z,116.60
2018-03-28T04:02:36.821Z,114.30
2018-03-28T04:03:36.917Z,104.60
2018-03-28T04:04:36.825Z,108.10
2018-03-28T04:05:36.935Z,121.90
2018-03-28T04:06:36.837Z,103.80
2018-03-28T04:07:38.994Z,96.00
2018-03-28T04:08:36.847Z,98.40
2018-03-28T04:09:36.955Z,111.50
2018-03-28T04:10:36.854Z,119.70
2018-03-28T04:11:36.967Z,115.00
2018-03-28T04:12:36.869Z,112.40
2018-03-28T04:13:36.982Z,111.20
2018-03-28T04:14:36.874Z,113.80
2018-03-28T04:15:36.995Z,117.10
2018-03-28T04:16:36.892Z,110.30
2018-03-28T04:17:37.011Z,118.00
2018-03-28T04:18:36.899Z,111.30
2018-03-28T04:19:37.022Z,113.90
2018-03-28T04:20:36.902Z,116.30
2018-03-28T04:21:37.035Z,110.60
2018-03-28T04:22:36.916Z,116.10
2018-03-28T04:23:37.049Z,117.70
2018-03-28T04:24:36.926Z,114.00
2018-03-28T04:25:37.064Z,123.80
2018-03-28T04:26:36.955Z,118.20
2018-03-28T04:27:37.072Z,101.20
2018-03-28T04:28:36.941Z,120.90
2018-03-28T04:29:37.088Z,115.70
2018-03-28T04:30:36.954Z,118.00
2018-03-28T04:31:37.003Z,132.10
2018-03-28T04:32:36.963Z,128.70
2018-03-28T04:33:37.123Z,118.40
2018-03-28T04:34:36.974Z,123.10
2018-03-28T04:35:37.134Z,119.90
2018-03-28T04:36:36.983Z,125.50
2018-03-28T04:37:37.150Z,126.10
2018-03-28T04:38:37.004Z,135.30
2018-03-28T04:39:37.160Z,118.80
2018-03-28T04:40:37.035Z,120.50
2018-03-28T04:41:37.171Z,108.90
2018-03-28T04:42:37.012Z,127.50
2018-03-28T04:43:37.195Z,119.70
2018-03-28T04:44:37.026Z,103.30
2018-03-28T04:45:37.197Z,109.30
2018-03-28T04:46:37.039Z,91.60
2018-03-28T04:47:37.211Z,108.90
2018-03-28T04:48:37.041Z,110.80
2018-03-28T04:49:37.331Z,109.50
2018-03-28T04:50:37.049Z,122.30
2018-03-28T04:51:37.255Z,115.40
2018-03-28T04:52:37.055Z,111.60
2018-03-28T04:53:37.261Z,114.00
2018-03-28T04:54:37.071Z,113.10
2018-03-28T04:55:37.269Z,123.20
2018-03-28T04:56:37.081Z,112.60
2018-03-28T04:57:37.279Z,110.10
2018-03-28T04:58:37.099Z,108.30
2018-03-28T04:59:37.297Z,106.50
2018-03-28T05:00:37.099Z,111.40
2018-03-28T05:01:37.212Z,107.70
2018-03-28T05:02:37.105Z,121.30
2018-03-28T05:03:37.228Z,113.00
2018-03-28T05:04:37.108Z,116.90
2018-03-28T05:05:37.241Z,126.60
2018-03-28T05:06:37.127Z,119.00
2018-03-28T05:07:37.247Z,109.90
2018-03-28T05:08:37.133Z,108.60
2018-03-28T05:09:37.261Z,115.00
2018-03-28T05:10:37.141Z,110.10
2018-03-28T05:11:37.280Z,124.80
2018-03-28T05:12:37.153Z,132.10
2018-03-28T05:13:37.294Z,124.00
2018-03-28T05:14:37.164Z,125.50
2018-03-28T05:15:37.356Z,122.90
2018-03-28T05:16:37.174Z,125.40
2018-03-28T05:17:37.317Z,124.40
2018-03-28T05:18:37.179Z,158.10
2018-03-28T05:19:38.361Z,133.10
2018-03-28T05:20:37.189Z,134.50
2018-03-28T05:21:37.346Z,128.10
2018-03-28T05:22:37.257Z,134.30
2018-03-28T05:23:37.353Z,128.10
2018-03-28T05:24:37.215Z,125.60
2018-03-28T05:25:37.366Z,123.70
2018-03-28T05:26:37.226Z,125.30
2018-03-28T05:27:37.384Z,120.40
2018-03-28T05:28:37.231Z,134.70
2018-03-28T05:29:37.401Z,116.60
2018-03-28T05:30:37.245Z,121.80
2018-03-28T05:31:37.408Z,126.80
2018-03-28T05:32:37.249Z,133.60
2018-03-28T05:33:37.480Z,134.80
2018-03-28T05:34:37.255Z,140.70
2018-03-28T05:35:37.436Z,130.00
2018-03-28T05:36:37.267Z,134.40
2018-03-28T05:37:37.482Z,124.70
2018-03-28T05:38:37.277Z,128.40
2018-03-28T05:39:37.462Z,126.30
2018-03-28T05:40:37.303Z,127.20
2018-03-28T05:41:37.374Z,125.60
2018-03-28T05:42:37.293Z,119.00
2018-03-28T05:43:37.386Z,117.30
2018-03-28T05:44:37.330Z,112.40
2018-03-28T05:45:37.618Z,121.10
2018-03-28T05:46:37.318Z,120.00
2018-03-28T05:47:37.417Z,107.60
2018-03-28T05:48:37.318Z,113.60
2018-03-28T05:49:37.431Z,111.60
2018-03-28T05:50:37.326Z,107.80
2018-03-28T05:51:37.449Z,111.90
2018-03-28T05:52:37.339Z,114.00
2018-03-28T05:53:37.463Z,113.90
2018-03-28T05:54:37.410Z,109.80
2018-03-28T05:55:37.471Z,110.40
2018-03-28T05:56:37.362Z,112.80
2018-03-28T05:57:37.523Z,104.90
2018-03-28T05:58:37.368Z,110.70
2018-03-28T05:59:37.498Z,110.10
2018-03-28T06:00:37.402Z,115.30
2018-03-28T06:01:37.512Z,106.40
2018-03-28T06:02:37.389Z,114.30
2018-03-28T06:03:37.431Z,110.10
2018-03-28T06:04:37.395Z,122.90
2018-03-28T06:05:37.456Z,110.00
2018-03-28T06:06:37.404Z,111.30
2018-03-28T06:07:37.518Z,108.10
2018-03-28T06:08:37.414Z,117.50
2018-03-28T06:09:37.660Z,125.20
2018-03-28T06:10:37.434Z,113.70
2018-03-28T06:11:37.498Z,117.90
2018-03-28T06:12:37.435Z,116.80
2018-03-28T06:13:37.511Z,116.30
2018-03-28T06:14:37.438Z,121.00
2018-03-28T06:15:37.527Z,128.40
2018-03-28T06:16:37.451Z,111.20
2018-03-28T06:17:37.525Z,121.20
2018-03-28T06:18:37.455Z,126.80
2018-03-28T06:19:37.539Z,131.90
2018-03-28T06:20:37.468Z,138.00
2018-03-28T06:21:37.553Z,134.90
2018-03-28T06:22:37.484Z,131.10
2018-03-28T06:23:37.630Z,132.30
2018-03-28T06:24:37.494Z,137.40
2018-03-28T06:25:37.650Z,145.70
2018-03-28T06:26:37.496Z,130.90
2018-03-28T06:27:37.656Z,135.60
2018-03-28T06:28:37.509Z,147.80
2018-03-28T06:29:37.674Z,132.70
2018-03-28T06:30:37.542Z,144.20
2018-03-28T06:31:37.532Z,134.90
2018-03-28T06:32:37.620Z,135.80
2018-03-28T06:33:37.530Z,139.30
2018-03-28T06:34:37.696Z,138.50
2018-03-28T06:35:37.563Z,135.70
2018-03-28T06:36:37.662Z,149.80
2018-03-28T06:37:37.567Z,129.80
2018-03-28T06:38:37.695Z,141.10
2018-03-28T06:39:37.563Z,140.40
2018-03-28T06:40:37.704Z,131.00
2018-03-28T06:41:37.592Z,129.80
2018-03-28T06:42:37.695Z,136.60
2018-03-28T06:43:37.573Z,134.90
2018-03-28T06:44:37.714Z,134.60
2018-03-28T06:45:37.591Z,135.40
2018-03-28T06:46:37.620Z,132.20
2018-03-28T06:47:37.594Z,138.60
2018-03-28T06:48:37.732Z,141.10
2018-03-28T06:49:37.607Z,129.40
2018-03-28T06:50:37.828Z,128.90
2018-03-28T06:51:37.620Z,137.30
2018-03-28T06:52:37.775Z,140.90
2018-03-28T06:53:37.656Z,147.20
2018-03-28T06:54:37.773Z,141.60
2018-03-28T06:55:37.732Z,134.30
2018-03-28T06:56:37.786Z,139.00
2018-03-28T06:57:37.676Z,147.50
2018-03-28T06:58:37.698Z,133.90
2018-03-28T06:59:37.712Z,136.60
2018-03-28T07:00:37.710Z,135.00
2018-03-28T07:01:37.661Z,130.20
2018-03-28T07:02:37.725Z,132.10
2018-03-28T07:03:37.666Z,128.50
2018-03-28T07:04:37.736Z,120.50
2018-03-28T07:05:37.718Z,114.20
2018-03-28T07:06:37.751Z,124.10
2018-03-28T07:07:37.684Z,115.00
2018-03-28T07:08:37.685Z,104.00
2018-03-28T07:09:37.693Z,116.00
2018-03-28T07:10:37.698Z,103.60
2018-03-28T07:11:37.707Z,106.30
2018-03-28T07:12:37.713Z,110.50
2018-03-28T07:13:38.156Z,106.10
2018-03-28T07:14:37.729Z,102.30
2018-03-28T07:15:37.724Z,108.80
2018-03-28T07:16:37.736Z,99.10
2018-03-28T07:17:37.728Z,105.60
2018-03-28T07:18:37.742Z,102.20
2018-03-28T07:19:37.748Z,96.20
2018-03-28T07:20:37.793Z,99.40
2018-03-28T07:21:37.746Z,94.90
2018-03-28T07:22:37.761Z,94.90
2018-03-28T07:23:37.778Z,98.90
2018-03-28T07:24:37.760Z,93.80
2018-03-28T07:25:37.767Z,94.70
2018-03-28T07:26:37.770Z,84.90
2018-03-28T07:27:37.785Z,89.30
2018-03-28T07:28:37.833Z,87.70
2018-03-28T07:29:37.795Z,86.00
2018-03-28T07:30:37.814Z,87.50
2018-03-28T07:31:37.809Z,85.00
2018-03-28T07:32:37.844Z,85.10
2018-03-28T07:33:37.823Z,78.50
2018-03-28T07:34:37.815Z,82.10
2018-03-28T07:35:37.811Z,71.30
2018-03-28T07:36:37.828Z,74.80
2018-03-28T07:37:37.819Z,76.30
2018-03-28T07:38:37.826Z,74.40
2018-03-28T07:39:37.956Z,65.30
2018-03-28T07:40:37.843Z,68.30
2018-03-28T07:41:37.846Z,69.20
2018-03-28T07:42:37.848Z,70.50
2018-03-28T07:43:37.981Z,71.40
2018-03-28T07:44:37.892Z,67.80
2018-03-28T07:45:37.987Z,69.90
2018-03-28T07:46:37.869Z,67.70
2018-03-28T07:47:37.899Z,66.50
2018-03-28T07:48:37.875Z,68.70
2018-03-28T07:49:38.024Z,72.80
2018-03-28T07:50:37.882Z,74.00
2018-03-28T07:51:38.073Z,77.70
2018-03-28T07:52:37.884Z,75.30
2018-03-28T07:53:37.945Z,80.00
2018-03-28T07:54:37.898Z,81.30
2018-03-28T07:55:37.957Z,76.20
2018-03-28T07:56:37.908Z,83.40
2018-03-28T07:57:37.967Z,72.00
2018-03-28T07:58:37.922Z,78.30
2018-03-28T07:59:37.985Z,78.40
2018-03-28T08:00:37.927Z,81.50
2018-03-28T08:01:37.996Z,81.40
2018-03-28T08:02:37.935Z,78.80
2018-03-28T08:03:38.019Z,79.90
2018-03-28T08:04:37.943Z,87.50
2018-03-28T08:05:38.023Z,77.80
2018-03-28T08:06:37.960Z,71.80
2018-03-28T08:07:38.053Z,78.10
2018-03-28T08:08:37.963Z,77.00
2018-03-28T08:09:38.053Z,86.80
2018-03-28T08:10:37.991Z,86.10
2018-03-28T08:11:38.071Z,87.90
2018-03-28T08:12:37.986Z,89.60
2018-03-28T08:13:38.072Z,86.80
2018-03-28T08:14:37.994Z,89.00
2018-03-28T08:15:38.088Z,93.30
2018-03-28T08:16:38.013Z,86.30
2018-03-28T08:17:38.095Z,87.30
2018-03-28T08:18:38.019Z,88.00
2018-03-28T08:19:38.114Z,83.90
2018-03-28T08:20:38.027Z,85.60
2018-03-28T08:21:38.122Z,85.20
2018-03-28T08:22:38.031Z,82.20
2018-03-28T08:23:38.138Z,85.70
2018-03-28T08:24:38.042Z,85.90
2018-03-28T08:25:38.153Z,84.90
2018-03-28T08:26:38.046Z,80.70
2018-03-28T08:27:38.164Z,81.40
2018-03-28T08:28:38.050Z,76.40
2018-03-28T08:29:39.231Z,76.50
2018-03-28T08:30:38.083Z,73.80
2018-03-28T08:31:38.200Z,76.00
2018-03-28T08:32:38.072Z,70.60
2018-03-28T08:33:38.203Z,77.90
2018-03-28T08:34:38.082Z,78.60
2018-03-28T08:35:38.233Z,76.30
2018-03-28T08:36:38.095Z,77.80
2018-03-28T08:37:38.256Z,72.70
2018-03-28T08:38:38.100Z,69.60
2018-03-28T08:39:38.319Z,68.50
2018-03-28T08:40:38.111Z,72.10
2018-03-28T08:41:38.230Z,77.10
2018-03-28T08:42:38.130Z,70.70
2018-03-28T08:43:38.245Z,72.60
2018-03-28T08:44:38.138Z,73.10
2018-03-28T08:45:38.361Z,67.90
2018-03-28T08:46:38.172Z,67.30
2018-03-28T08:47:38.171Z,67.80
2018-03-28T08:48:38.141Z,67.70
2018-03-28T08:49:38.289Z,75.00
2018-03-28T08:50:38.150Z,67.70
2018-03-28T08:51:40.338Z,72.50
2018-03-28T08:52:38.161Z,76.20
2018-03-28T08:53:38.309Z,69.20
2018-03-28T08:54:38.177Z,68.20
2018-03-28T08:55:40.269Z,68.70
2018-03-28T08:56:38.184Z,68.10
2018-03-28T08:57:38.230Z,67.90
2018-03-28T08:58:38.195Z,62.80
2018-03-28T08:59:38.256Z,65.80
2018-03-28T09:00:38.206Z,64.10
2018-03-28T09:01:38.361Z,61.30
2018-03-28T09:02:38.229Z,63.40
2018-03-28T09:03:42.992Z,62.10
2018-03-28T09:04:38.219Z,66.00
2018-03-28T09:05:38.311Z,67.00
2018-03-28T09:06:38.240Z,63.30
2018-03-28T09:07:38.301Z,64.10
2018-03-28T09:08:38.246Z,61.10
2018-03-28T09:09:38.310Z,60.40
2018-03-28T09:10:38.265Z,63.10
2018-03-28T09:11:38.446Z,61.80
2018-03-28T09:12:38.274Z,65.20
2018-03-28T09:13:42.958Z,63.20
2018-03-28T09:14:38.265Z,61.10
2018-03-28T09:15:38.354Z,61.50
2018-03-28T09:16:38.271Z,62.60
2018-03-28T09:17:38.369Z,62.20
2018-03-28T09:18:38.289Z,56.50
2018-03-28T09:19:39.409Z,59.50
2018-03-28T09:20:38.290Z,55.00
2018-03-28T09:21:38.391Z,56.00
2018-03-28T09:22:38.302Z,55.20
2018-03-28T09:23:43.943Z,61.30
2018-03-28T09:24:38.324Z,59.60
2018-03-28T09:25:39.469Z,60.30
2018-03-28T09:26:38.326Z,58.10
2018-03-28T09:27:39.462Z,54.60
2018-03-28T09:28:38.336Z,54.20
2018-03-28T09:29:38.445Z,58.20
2018-03-28T09:30:38.374Z,59.00
2018-03-28T09:31:39.383Z,62.30
2018-03-28T09:32:38.347Z,58.10
2018-03-28T09:33:38.482Z,58.30
2018-03-28T09:34:38.367Z,58.50
2018-03-28T09:35:38.499Z,58.90
2018-03-28T09:36:38.371Z,57.40
2018-03-28T09:37:38.501Z,56.80
2018-03-28T09:38:38.390Z,56.40
2018-03-28T09:39:38.518Z,56.70
2018-03-28T09:40:38.418Z,56.80
2018-03-28T09:41:38.522Z,56.30
2018-03-28T09:42:38.392Z,52.30
2018-03-28T09:43:38.433Z,57.50
2018-03-28T09:44:38.410Z,58.30
2018-03-28T09:45:39.469Z,51.60
2018-03-28T09:46:38.418Z,52.70
2018-03-28T09:47:38.466Z,48.10
2018-03-28T09:48:38.426Z,47.70
2018-03-28T09:49:38.476Z,50.40
2018-03-28T09:50:38.443Z,49.10
2018-03-28T09:51:38.472Z,50.10
2018-03-28T09:52:38.496Z,45.90
2018-03-28T09:53:38.478Z,52.50
2018-03-28T09:54:38.463Z,49.30
2018-03-28T09:55:38.491Z,49.70
2018-03-28T09:56:38.459Z,49.50
2018-03-28T09:57:38.501Z,48.90
2018-03-28T09:58:38.472Z,48.40
2018-03-28T09:59:38.533Z,48.00
2018-03-28T10:00:38.486Z,50.00
2018-03-28T10:01:38.545Z,50.00
2018-03-28T10:02:38.499Z,48.80
2018-03-28T10:03:38.539Z,46.10
2018-03-28T10:04:38.513Z,48.50
2018-03-28T10:05:38.557Z,47.10
2018-03-28T10:06:38.509Z,51.20
2018-03-28T10:07:38.568Z,50.50
2018-03-28T10:08:38.526Z,46.30
2018-03-28T10:09:38.523Z,45.50
2018-03-28T10:10:38.527Z,44.50
2018-03-28T10:11:38.591Z,40.40
2018-03-28T10:12:38.539Z,43.30
2018-03-28T10:13:38.621Z,38.60
2018-03-28T10:14:38.562Z,40.40
2018-03-28T10:15:38.636Z,39.70
2018-03-28T10:16:38.558Z,40.50
2018-03-28T10:17:38.633Z,37.20
2018-03-28T10:18:38.698Z,36.30
2018-03-28T10:19:38.663Z,44.90
2018-03-28T10:20:38.583Z,42.00
2018-03-28T10:21:38.664Z,41.30
2018-03-28T10:22:38.584Z,42.20
2018-03-28T10:23:38.683Z,43.90
2018-03-28T10:24:38.592Z,48.20
2018-03-28T10:25:38.679Z,47.70
2018-03-28T10:26:38.691Z,42.40
2018-03-28T10:27:38.694Z,43.50
2018-03-28T10:28:38.637Z,44.10
2018-03-28T10:29:38.714Z,39.80
2018-03-28T10:30:38.628Z,37.80
2018-03-28T10:31:38.726Z,46.20
2018-03-28T10:32:38.639Z,44.20
2018-03-28T10:33:38.733Z,44.30
2018-03-28T10:34:38.660Z,41.60
2018-03-28T10:35:38.750Z,40.30
2018-03-28T10:36:38.682Z,41.60
2018-03-28T10:37:38.762Z,40.60
2018-03-28T10:38:38.665Z,43.40
2018-03-28T10:39:38.787Z,40.90
2018-03-28T10:40:38.680Z,41.50
2018-03-28T10:41:38.784Z,42.90
2018-03-28T10:42:38.688Z,40.80
2018-03-28T10:43:38.825Z,39.50
2018-03-28T10:44:38.686Z,40.60
2018-03-28T10:45:38.724Z,43.60
2018-03-28T10:46:38.705Z,40.00
2018-03-28T10:47:38.722Z,47.50
2018-03-28T10:48:38.725Z,41.80
2018-03-28T10:49:38.740Z,43.60
2018-03-28T10:50:38.748Z,40.90
2018-03-28T10:51:38.747Z,43.10
2018-03-28T10:52:38.728Z,40.80
2018-03-28T10:53:38.766Z,43.90
2018-03-28T10:54:38.744Z,37.40
2018-03-28T10:55:38.775Z,40.00
2018-03-28T10:56:38.850Z,40.40
2018-03-28T10:57:38.821Z,36.30
2018-03-28T10:58:38.772Z,38.70
2018-03-28T10:59:38.770Z,41.30
2018-03-28T11:00:38.776Z,41.70
2018-03-28T11:01:38.814Z,41.60
2018-03-28T11:02:38.783Z,44.10
2018-03-28T11:03:38.824Z,40.30
2018-03-28T11:04:38.785Z,39.50
2018-03-28T11:05:38.848Z,41.30
2018-03-28T11:06:38.939Z,38.70
2018-03-28T11:07:38.854Z,41.80
2018-03-28T11:08:38.809Z,60.90
2018-03-28T11:09:38.871Z,42.30
2018-03-28T11:10:38.825Z,40.60
2018-03-28T11:11:38.837Z,45.60
2018-03-28T11:12:38.836Z,44.70
2018-03-28T11:13:38.932Z,42.90
2018-03-28T11:14:38.840Z,40.30
2018-03-28T11:15:38.946Z,45.20
2018-03-28T11:16:38.853Z,43.50
2018-03-28T11:17:38.972Z,44.20
2018-03-28T11:18:38.859Z,45.20
2018-03-28T11:19:38.981Z,46.10
2018-03-28T11:20:38.889Z,40.50
2018-03-28T11:21:38.992Z,41.60
2018-03-28T11:22:38.882Z,44.40
2018-03-28T11:23:39.003Z,45.40
2018-03-28T11:24:38.888Z,44.30
2018-03-28T11:25:39.029Z,41.90
2018-03-28T11:26:38.913Z,44.60
2018-03-28T11:27:39.023Z,45.70
2018-03-28T11:28:38.908Z,46.40
2018-03-28T11:29:39.046Z,47.00
2018-03-28T11:30:38.936Z,44.50
2018-03-28T11:31:39.005Z,46.80
2018-03-28T11:32:38.929Z,42.10
2018-03-28T11:33:39.053Z,47.20
2018-03-28T11:34:38.933Z,50.30
2018-03-28T11:35:39.064Z,46.90
2018-03-28T11:36:38.943Z,45.10
2018-03-28T11:37:39.089Z,41.60
2018-03-28T11:38:38.961Z,43.10
2018-03-28T11:39:39.095Z,43.60
2018-03-28T11:40:38.964Z,47.30
2018-03-28T11:41:38.970Z,42.70
2018-03-28T11:42:38.981Z,41.50
2018-03-28T11:43:38.989Z,40.80
2018-03-28T11:44:38.988Z,42.80
2018-03-28T11:45:38.993Z,44.50
2018-03-28T11:46:39.000Z,46.10
2018-03-28T11:47:39.014Z,46.00
2018-03-28T11:48:39.007Z,40.10
2018-03-28T11:49:39.092Z,48.20
2018-03-28T11:50:39.024Z,47.70
2018-03-28T11:51:39.048Z,43.20
2018-03-28T11:52:39.038Z,43.40
2018-03-28T11:53:39.037Z,43.80
2018-03-28T11:54:39.044Z,42.30
2018-03-28T11:55:39.073Z,43.30
2018-03-28T11:56:39.046Z,39.90
2018-03-28T11:57:39.076Z,43.00
2018-03-28T11:58:39.058Z,46.30
2018-03-28T11:59:39.059Z,45.30
2018-03-28T12:00:39.066Z,44.70
2018-03-28T12:01:39.072Z,43.70
2018-03-28T12:02:39.079Z,44.90
2018-03-28T12:03:39.088Z,46.70
2018-03-28T12:04:39.092Z,43.80
2018-03-28T12:05:40.172Z,45.30
2018-03-28T12:06:39.127Z,48.10
2018-03-28T12:07:39.116Z,44.60
2018-03-28T12:08:39.124Z,43.70
2018-03-28T12:09:39.115Z,43.60
2018-03-28T12:10:39.139Z,47.20
2018-03-28T12:11:39.116Z,48.90
2018-03-28T12:12:39.124Z,51.90
2018-03-28T12:13:39.125Z,53.90
2018-03-28T12:14:39.143Z,55.00
2018-03-28T12:15:39.139Z,60.00
2018-03-28T12:16:39.172Z,60.30
2018-03-28T12:17:39.150Z,67.00
2018-03-28T12:18:39.157Z,65.00
2018-03-28T12:19:39.163Z,69.90
2018-03-28T12:20:39.166Z,67.80
2018-03-28T12:21:39.188Z,70.30
2018-03-28T12:22:39.179Z,72.30
2018-03-28T12:23:39.202Z,72.70
2018-03-28T12:24:39.193Z,70.70
2018-03-28T12:25:39.187Z,74.00
2018-03-28T12:26:39.194Z,72.90
2018-03-28T12:27:39.204Z,71.30
2018-03-28T12:28:39.202Z,70.90
2018-03-28T12:29:39.210Z,68.30
2018-03-28T12:30:39.213Z,68.40
2018-03-28T12:31:39.221Z,68.90
2018-03-28T12:32:39.223Z,68.40
2018-03-28T12:33:39.225Z,68.50
2018-03-28T12:34:39.237Z,69.80
2018-03-28T12:35:39.273Z,70.00
2018-03-28T12:36:39.263Z,67.00
2018-03-28T12:37:39.246Z,66.30
2018-03-28T12:38:39.252Z,66.70
2018-03-28T12:39:39.255Z,65.40
2018-03-28T12:40:39.257Z,66.70
2018-03-28T12:41:39.268Z,69.30
2018-03-28T12:42:39.275Z,69.00
2018-03-28T12:43:39.360Z,64.10
2018-03-28T12:44:39.280Z,65.90
2018-03-28T12:45:39.366Z,62.30
2018-03-28T12:46:39.290Z,58.20